KCQB

Details ICAO KCQB
Name CHANDLER RGNL
Region United States
Timezone America/Chicago (UTC-5.0)
Plans Departing 1
Arriving 1
Stats Elevation 984 ft / 300 m (AMSL)
Location 35.724082° -96.820278°
Runways 1
Magnetic Variation 3.232° E
Sunrise 2018-05-27 11:16:04 UTC / 2018-05-27 06:16:04 Local
Sunset 2018-05-28 01:35:45 UTC / 2018-05-27 20:35:45 Local
Advertisement - Login to hide

Runways

ID Width Length Bearing (true) Bearing (mag) Surface Threshold Offset Overrun Length
17 60 ft / 18 m 4,009 ft / 1,222 m 180.24° 177.01° Asphalt 0 ft / 0 m 0 ft / 0 m
35 60 ft / 18 m 4,009 ft / 1,222 m 0.24° 357.01° Asphalt 0 ft / 0 m 0 ft / 0 m

Map

Weather


0- 5 10 15 20 25 30 35+ Temperature / ° C

Clouds and Precipitation
Forecast for 2018-05-27 18:00 UTC. Updated 3 hours ago

Ground ~20,000 ft ~40,000 ft Winds

METAR

KCQB 272015Z AUTO 12007KT 10SM CLR 32/20 A2987 RMK AO2 T03230203

TAF

Not found

Frequencies

Recorded 119.27 MHz AWOS 3
Unicom 122.90 MHz CTAF/UNICOM
Warning: Do not use this data for real-world aviation or navigation. No guarantee of current accuracy is given.